createdAt,value
2022-09-03T00:00:17.265Z,18.63
2022-09-03T00:02:13.588Z,18.63
2022-09-03T00:03:14.565Z,18.59
2022-09-03T00:04:14.554Z,18.55
2022-09-03T00:05:14.581Z,18.55
2022-09-03T00:06:14.539Z,18.53
2022-09-03T00:07:14.527Z,18.50
2022-09-03T00:08:14.539Z,18.50
2022-09-03T00:09:14.502Z,18.50
2022-09-03T00:10:14.683Z,18.49
2022-09-03T00:11:14.516Z,18.47
2022-09-03T00:12:14.474Z,18.43
2022-09-03T00:13:14.475Z,18.41
2022-09-03T00:14:14.452Z,18.38
2022-09-03T00:15:14.441Z,18.38
2022-09-03T00:16:14.453Z,18.37
2022-09-03T00:17:14.454Z,18.37
2022-09-03T00:18:14.404Z,18.34
2022-09-03T00:19:14.401Z,18.29
2022-09-03T00:20:14.381Z,18.25
2022-09-03T00:21:14.372Z,18.23
2022-09-03T00:22:14.368Z,18.25
2022-09-03T00:23:14.373Z,18.22
2022-09-03T00:24:15.210Z,18.20
2022-09-03T00:25:14.351Z,18.20
2022-09-03T00:26:14.322Z,18.25
2022-09-03T00:27:14.310Z,18.23
2022-09-03T00:28:14.301Z,18.23
2022-09-03T00:29:14.294Z,18.25
2022-09-03T00:30:16.550Z,18.28
2022-09-03T00:31:14.371Z,18.26
2022-09-03T00:32:14.261Z,18.28
2022-09-03T00:33:14.256Z,18.22
2022-09-03T00:34:14.230Z,18.23
2022-09-03T00:35:14.252Z,18.23
2022-09-03T00:36:14.220Z,18.23
2022-09-03T00:37:15.612Z,18.23
2022-09-03T00:38:14.190Z,18.25
2022-09-03T00:39:14.183Z,18.22
2022-09-03T00:40:14.188Z,18.25
2022-09-03T00:41:14.169Z,18.23
2022-09-03T00:42:14.256Z,18.19
2022-09-03T00:43:14.139Z,18.19
2022-09-03T00:44:14.123Z,18.18
2022-09-03T00:45:14.117Z,18.13
2022-09-03T00:46:14.154Z,18.10
2022-09-03T00:47:14.108Z,18.11
2022-09-03T00:48:14.108Z,18.07
2022-09-03T00:49:14.109Z,18.04
2022-09-03T00:50:14.065Z,18.04
2022-09-03T00:51:14.055Z,18.03
2022-09-03T00:52:14.058Z,18.03
2022-09-03T00:53:14.029Z,18.01
2022-09-03T00:54:14.026Z,18.00
2022-09-03T00:55:14.011Z,17.98
2022-09-03T00:56:13.991Z,17.98
2022-09-03T00:57:14.019Z,17.98
2022-09-03T00:58:13.979Z,17.97
2022-09-03T00:59:13.969Z,17.95
2022-09-03T01:00:13.955Z,17.97
2022-09-03T01:01:14.092Z,17.97
2022-09-03T01:02:14.292Z,17.95
2022-09-03T01:03:13.947Z,17.95
2022-09-03T01:04:13.911Z,17.94
2022-09-03T01:05:13.900Z,17.90
2022-09-03T01:06:13.903Z,17.90
2022-09-03T01:07:13.883Z,17.86
2022-09-03T01:08:13.897Z,17.83
2022-09-03T01:09:13.854Z,17.83
2022-09-03T05:01:40.193Z,18.25
2022-09-03T05:02:47.204Z,18.25
2022-09-03T05:03:41.157Z,18.25
2022-09-03T05:04:41.154Z,18.28
2022-09-03T05:05:41.136Z,18.29
2022-09-03T05:06:41.125Z,18.28
2022-09-03T05:07:41.119Z,18.29
2022-09-03T05:08:41.119Z,18.31
2022-09-03T05:09:41.116Z,18.33
2022-09-03T05:10:41.081Z,18.35
2022-09-03T05:11:41.079Z,18.35
2022-09-03T05:12:41.089Z,18.37
2022-09-03T05:13:41.062Z,18.40
2022-09-03T05:14:47.078Z,18.37
2022-09-03T05:15:41.030Z,18.38
2022-09-03T05:16:41.107Z,18.38
2022-09-03T05:17:41.015Z,18.43
2022-09-03T05:18:41.002Z,18.44
2022-09-03T05:19:41.036Z,18.43
2022-09-03T05:20:40.981Z,18.44
2022-09-03T05:21:40.968Z,18.44
2022-09-03T05:22:40.953Z,18.45
2022-09-03T05:23:40.952Z,18.45
2022-09-03T05:24:40.945Z,18.49
2022-09-03T05:25:40.946Z,18.49
2022-09-03T05:26:40.917Z,18.49
2022-09-03T05:27:40.906Z,18.47
2022-09-03T05:28:40.893Z,18.49
2022-09-03T05:29:40.898Z,18.52
2022-09-03T05:30:40.866Z,18.50
2022-09-03T05:31:40.916Z,18.52
2022-09-03T05:32:40.844Z,18.55
2022-09-03T05:33:40.844Z,18.56
2022-09-03T05:34:40.827Z,18.53
2022-09-03T05:35:40.840Z,18.53
2022-09-03T05:36:40.824Z,18.55
2022-09-03T05:37:40.807Z,18.56
2022-09-03T05:38:40.787Z,18.55
2022-09-03T05:39:40.844Z,18.56
2022-09-03T05:40:40.775Z,18.55
2022-09-03T05:41:40.776Z,18.55
2022-09-03T05:42:40.756Z,18.58
2022-09-03T05:43:40.734Z,18.58
2022-09-03T05:44:40.730Z,18.58
2022-09-03T05:45:40.763Z,18.59
2022-09-03T05:46:40.712Z,18.60
2022-09-03T05:47:40.712Z,18.63
2022-09-03T05:48:40.679Z,18.63
2022-09-03T05:49:40.677Z,18.63
2022-09-03T05:50:40.654Z,18.63
2022-09-03T05:51:40.648Z,18.66
2022-09-03T05:52:40.649Z,18.66
2022-09-03T05:53:40.647Z,18.65
2022-09-03T05:54:40.613Z,18.68
2022-09-03T05:55:40.602Z,18.68
2022-09-03T05:56:40.599Z,18.71
2022-09-03T05:57:40.587Z,18.66
2022-09-03T05:58:40.596Z,18.71
2022-09-03T05:59:40.561Z,18.74
2022-09-03T06:00:40.561Z,18.73
2022-09-03T06:01:40.576Z,18.77
2022-09-03T06:02:40.676Z,18.77
2022-09-03T06:03:40.721Z,18.80
2022-09-03T06:04:40.556Z,18.80
2022-09-03T06:05:40.498Z,18.81
2022-09-03T06:06:40.497Z,18.81
2022-09-03T06:07:40.491Z,18.81
2022-09-03T06:08:40.473Z,18.81
2022-09-03T06:09:40.473Z,18.84
2022-09-03T06:10:41.251Z,18.86
2022-09-03T06:11:40.455Z,18.88
2022-09-03T06:12:40.423Z,18.88
2022-09-03T06:13:40.406Z,18.89
2022-09-03T06:14:40.394Z,18.89
2022-09-03T06:15:40.405Z,18.89
2022-09-03T06:16:40.432Z,18.89
2022-09-03T06:17:40.367Z,18.89
2022-09-03T06:18:40.359Z,18.89
2022-09-03T06:19:40.347Z,18.89
2022-09-03T06:20:40.337Z,18.88
2022-09-03T06:21:40.339Z,18.89
2022-09-03T06:22:40.362Z,18.90
2022-09-03T06:23:41.058Z,18.89
2022-09-03T06:24:40.305Z,18.90
2022-09-03T06:25:40.285Z,18.89
2022-09-03T06:26:40.273Z,18.90
2022-09-03T06:27:40.290Z,18.89
2022-09-03T06:28:40.260Z,18.92
2022-09-03T06:29:40.265Z,18.95
2022-09-03T06:30:40.265Z,18.96
2022-09-03T06:31:40.384Z,18.98
2022-09-03T06:32:40.230Z,18.96
2022-09-03T06:33:40.210Z,18.98
2022-09-03T06:34:40.193Z,18.96
2022-09-03T06:35:43.183Z,18.96
2022-09-03T06:36:40.171Z,18.99
2022-09-03T06:37:40.154Z,18.99
2022-09-03T06:38:40.181Z,19.02
2022-09-03T06:39:40.239Z,19.00
2022-09-03T06:40:40.131Z,19.04
2022-09-03T06:41:40.232Z,19.07
2022-09-03T06:42:40.095Z,19.08
2022-09-03T06:43:40.117Z,19.07
2022-09-03T06:44:40.077Z,19.09
2022-09-03T06:45:40.201Z,19.12
2022-09-03T06:46:40.060Z,19.09
2022-09-03T06:47:40.049Z,19.09
2022-09-03T06:48:40.068Z,19.08
2022-09-03T06:49:40.053Z,19.11
2022-09-03T06:50:40.015Z,19.08
2022-09-03T06:51:40.014Z,19.07
2022-09-03T06:52:39.987Z,19.08
2022-09-03T06:53:39.984Z,19.07
2022-09-03T06:54:39.991Z,19.08
2022-09-03T06:55:39.998Z,19.09
2022-09-03T06:56:40.955Z,19.09
2022-09-03T06:57:39.952Z,19.08
2022-09-03T06:58:39.953Z,19.11
2022-09-03T06:59:39.945Z,19.09
2022-09-03T07:00:40.015Z,19.08
2022-09-03T07:01:40.150Z,19.09
2022-09-03T07:02:44.692Z,19.08
2022-09-03T07:03:39.974Z,19.09
2022-09-03T07:04:39.863Z,19.09
2022-09-03T07:05:39.867Z,19.09
2022-09-03T07:06:39.861Z,19.11
2022-09-03T07:07:39.863Z,19.09
2022-09-03T07:08:39.821Z,19.12
2022-09-03T07:09:39.837Z,19.11
2022-09-03T07:10:39.812Z,19.11
2022-09-03T07:11:39.800Z,19.11
2022-09-03T07:12:39.825Z,19.16
2022-09-03T07:13:39.777Z,19.14
2022-09-03T07:14:39.754Z,19.12
2022-09-03T07:15:39.751Z,19.15
2022-09-03T07:16:39.857Z,19.15
2022-09-03T07:17:39.727Z,19.18
2022-09-03T07:18:39.729Z,19.16
2022-09-03T07:19:39.748Z,19.18
2022-09-03T07:20:39.743Z,19.14
2022-09-03T07:21:39.698Z,19.15
2022-09-03T07:22:39.685Z,19.18
2022-09-03T07:23:39.671Z,19.18
2022-09-03T07:24:39.666Z,19.16
2022-09-03T07:25:39.667Z,19.18
2022-09-03T07:26:39.629Z,19.16
2022-09-03T07:27:39.646Z,19.16
2022-09-03T07:28:39.624Z,19.19
2022-09-03T07:29:39.603Z,19.19
2022-09-03T07:30:39.610Z,19.19
2022-09-03T07:31:39.658Z,19.19
2022-09-03T07:32:39.584Z,19.18
2022-09-03T07:33:39.562Z,19.21
2022-09-03T07:34:39.547Z,19.18
2022-09-03T07:35:39.536Z,19.18
2022-09-03T07:36:39.558Z,19.18
2022-09-03T07:37:39.527Z,19.16
2022-09-03T07:38:39.632Z,19.15
2022-09-03T07:39:39.548Z,19.16
2022-09-03T07:40:39.485Z,19.14
2022-09-03T07:41:39.512Z,19.14
2022-09-03T07:42:39.478Z,19.14
2022-09-03T07:43:39.450Z,19.12
2022-09-03T07:44:39.452Z,19.08
2022-09-03T07:45:39.447Z,19.08
2022-09-03T07:46:39.676Z,19.04
2022-09-03T07:47:39.459Z,19.04
2022-09-03T07:48:39.396Z,19.00
2022-09-03T07:49:39.385Z,18.99
2022-09-03T07:50:39.383Z,18.98
2022-09-03T07:51:39.367Z,18.98
2022-09-03T07:52:39.382Z,18.96
2022-09-03T07:53:39.350Z,18.98
2022-09-03T07:54:39.338Z,18.95
2022-09-03T07:55:39.323Z,18.96
2022-09-03T07:56:39.331Z,18.95
2022-09-03T07:57:39.303Z,18.95
2022-09-03T07:58:39.305Z,18.96
2022-09-03T07:59:39.284Z,18.98
2022-09-03T08:00:39.346Z,18.98
2022-09-03T08:01:41.435Z,18.99
2022-09-03T08:02:41.994Z,19.00
2022-09-03T08:03:39.282Z,18.98
2022-09-03T08:04:39.233Z,18.99
2022-09-03T08:05:39.209Z,19.00
2022-09-03T08:06:39.211Z,19.00
2022-09-03T08:07:39.223Z,19.00
2022-09-03T08:08:39.180Z,19.00
2022-09-03T08:09:39.217Z,18.98
2022-09-03T08:10:39.161Z,18.99
2022-09-03T08:11:39.172Z,18.99
2022-09-03T08:12:39.140Z,18.99
2022-09-03T08:13:39.160Z,18.99
2022-09-03T08:14:39.141Z,18.98
2022-09-03T08:15:39.127Z,18.98
2022-09-03T08:16:39.167Z,18.98
2022-09-03T08:17:39.086Z,18.99
2022-09-03T08:18:39.075Z,19.00
2022-09-03T08:19:39.088Z,19.00
2022-09-03T08:20:39.064Z,18.96
2022-09-03T08:21:39.047Z,18.98
2022-09-03T08:22:39.031Z,18.93
2022-09-03T08:23:39.020Z,18.96
2022-09-03T08:24:39.052Z,18.92
2022-09-03T08:25:39.046Z,18.92
2022-09-03T08:26:38.999Z,18.90
2022-09-03T08:27:38.983Z,18.90
2022-09-03T08:28:38.976Z,18.89
2022-09-03T08:29:38.956Z,18.86
2022-09-03T08:30:38.956Z,18.83
2022-09-03T08:31:39.065Z,18.81
2022-09-03T08:32:38.930Z,18.78
2022-09-03T08:33:38.926Z,18.81
2022-09-03T08:34:38.916Z,18.81
2022-09-03T08:35:38.893Z,18.80
2022-09-03T08:36:39.438Z,18.81
2022-09-03T08:37:38.877Z,18.80
2022-09-03T08:38:39.096Z,18.80
2022-09-03T08:39:38.922Z,18.80
2022-09-03T08:40:38.875Z,18.80
2022-09-03T08:41:38.832Z,18.80
2022-09-03T08:42:38.824Z,18.80
2022-09-03T08:43:38.820Z,18.83
2022-09-03T08:44:38.807Z,18.81
2022-09-03T08:45:38.789Z,18.81
2022-09-03T08:46:39.052Z,18.81
2022-09-03T08:47:38.773Z,18.83
2022-09-03T08:48:38.759Z,18.86
2022-09-03T08:49:38.801Z,18.84
2022-09-03T08:50:38.750Z,18.84
2022-09-03T08:51:38.729Z,18.84
2022-09-03T08:52:38.719Z,18.84
2022-09-03T08:53:38.696Z,18.84
2022-09-03T08:54:38.700Z,18.86
2022-09-03T08:55:38.739Z,18.89
2022-09-03T08:56:38.689Z,18.86
2022-09-03T08:57:38.659Z,18.88
2022-09-03T08:58:38.669Z,18.89
2022-09-03T08:59:38.635Z,18.88
2022-09-03T09:00:38.630Z,18.88
2022-09-03T09:01:38.745Z,18.88
2022-09-03T09:02:38.737Z,18.89
2022-09-03T09:03:38.605Z,18.88
2022-09-03T09:04:38.594Z,18.86
2022-09-03T09:05:38.574Z,18.89
2022-09-03T09:06:38.610Z,18.88
2022-09-03T09:07:38.553Z,18.88
2022-09-03T09:08:38.555Z,18.88
2022-09-03T09:09:38.540Z,18.92
2022-09-03T09:10:38.577Z,18.92
2022-09-03T09:11:38.521Z,18.92
2022-09-03T09:12:45.644Z,18.96
2022-09-03T09:13:38.488Z,18.98
2022-09-03T09:14:39.421Z,18.98
2022-09-03T09:15:38.543Z,18.99
2022-09-03T09:16:38.457Z,19.04
2022-09-03T09:17:38.498Z,19.04
2022-09-03T09:18:38.435Z,19.04
2022-09-03T09:19:38.443Z,19.08
2022-09-03T09:20:38.434Z,19.12
2022-09-03T09:21:38.416Z,19.12
2022-09-03T09:22:38.393Z,19.16
2022-09-03T09:23:38.378Z,19.21
2022-09-03T09:24:38.424Z,19.22
2022-09-03T09:25:38.369Z,19.27
2022-09-03T09:26:38.347Z,19.29
2022-09-03T09:27:38.337Z,19.33
2022-09-03T09:28:38.326Z,19.34
2022-09-03T09:29:38.316Z,19.37
2022-09-03T09:30:38.301Z,19.37
2022-09-03T09:31:38.361Z,19.39
2022-09-03T09:32:39.321Z,19.40
2022-09-03T09:33:38.280Z,19.41
2022-09-03T09:34:38.270Z,19.44
2022-09-03T09:35:38.247Z,19.44
2022-09-03T09:36:38.257Z,19.45
2022-09-03T09:37:38.283Z,19.48
2022-09-03T09:38:38.229Z,19.48
2022-09-03T09:39:38.261Z,19.48
2022-09-03T09:40:41.493Z,19.49
2022-09-03T09:41:38.208Z,19.52
2022-09-03T09:42:38.212Z,19.55
2022-09-03T09:43:38.190Z,19.55
2022-09-03T09:44:38.158Z,19.56
2022-09-03T09:45:38.157Z,19.59
2022-09-03T09:46:38.328Z,19.62
2022-09-03T09:47:38.134Z,19.64
2022-09-03T09:48:38.143Z,19.67
2022-09-03T09:49:38.164Z,19.66
2022-09-03T09:50:38.171Z,19.66
2022-09-03T09:51:38.101Z,19.59
2022-09-03T09:52:38.070Z,19.62
2022-09-03T09:53:38.063Z,19.59
2022-09-03T09:54:38.068Z,19.58
2022-09-03T09:55:38.034Z,19.56
2022-09-03T09:56:38.028Z,19.55
2022-09-03T09:57:38.010Z,19.52
2022-09-03T09:58:38.052Z,19.52
2022-09-03T09:59:38.008Z,19.49
2022-09-03T10:00:38.015Z,19.49
2022-09-03T10:01:38.046Z,19.49
2022-09-03T10:02:38.053Z,19.49
2022-09-03T10:03:37.948Z,19.48
2022-09-03T10:04:37.935Z,19.48
2022-09-03T10:05:37.930Z,19.47
2022-09-03T10:06:37.954Z,19.45
2022-09-03T10:07:37.904Z,19.44
2022-09-03T10:08:37.897Z,19.41
2022-09-03T10:09:37.882Z,19.41
2022-09-03T10:10:37.939Z,19.39
2022-09-03T10:11:37.873Z,19.37
2022-09-03T10:12:37.869Z,19.39
2022-09-03T10:13:37.839Z,19.37
2022-09-03T10:14:37.835Z,19.37
2022-09-03T10:15:37.845Z,19.36
2022-09-03T10:16:37.813Z,19.36
2022-09-03T10:17:37.829Z,19.36
2022-09-03T10:18:37.815Z,19.37
2022-09-03T10:19:37.775Z,19.39
2022-09-03T10:20:37.775Z,19.36
2022-09-03T10:21:37.751Z,19.37
2022-09-03T10:22:37.749Z,19.37
2022-09-03T10:23:37.756Z,19.39
2022-09-03T10:24:37.735Z,19.41
2022-09-03T10:25:37.708Z,19.44
2022-09-03T10:26:37.710Z,19.48
2022-09-03T10:27:37.688Z,19.51
2022-09-03T10:31:04.362Z,19.56
2022-09-03T10:32:11.296Z,19.58
2022-09-03T10:33:05.286Z,19.59
2022-09-03T10:34:05.285Z,19.64
2022-09-03T10:35:05.248Z,19.66
2022-09-03T10:37:21.475Z,19.74
2022-09-03T10:38:28.471Z,19.81
2022-09-03T10:39:28.531Z,19.82
2022-09-03T10:40:22.445Z,19.88
2022-09-03T10:41:22.470Z,19.91
2022-09-03T10:42:22.427Z,19.95
2022-09-03T10:43:22.404Z,20.02
2022-09-03T10:44:22.409Z,20.03
2022-09-03T10:45:22.382Z,20.06
2022-09-03T10:46:24.336Z,20.09
2022-09-03T10:47:22.375Z,20.11
2022-09-03T10:48:22.386Z,20.16
2022-09-03T10:49:22.341Z,20.19
2022-09-03T10:50:22.352Z,20.21
2022-09-03T10:51:22.339Z,20.26
2022-09-03T10:52:22.320Z,20.29
2022-09-03T10:53:22.300Z,20.34
2022-09-03T10:54:22.292Z,20.39
2022-09-03T10:55:22.292Z,20.43
2022-09-03T10:56:22.267Z,20.50
2022-09-03T10:57:22.253Z,20.55
2022-09-03T10:58:22.247Z,20.58
2022-09-03T10:59:25.099Z,20.60
2022-09-03T11:00:22.266Z,20.62
2022-09-03T11:01:22.333Z,20.65
2022-09-03T11:02:22.268Z,20.69
2022-09-03T11:03:22.197Z,20.72
2022-09-03T11:04:22.183Z,20.75
2022-09-03T11:05:22.190Z,20.80
2022-09-03T11:06:22.189Z,20.84
2022-09-03T11:07:22.144Z,20.88
2022-09-03T11:08:22.187Z,20.92
2022-09-03T11:09:22.124Z,20.93
2022-09-03T11:10:22.129Z,20.95
2022-09-03T11:11:22.130Z,21.02
2022-09-03T11:12:22.103Z,21.05
2022-09-03T11:13:22.083Z,21.06
2022-09-03T11:14:22.104Z,21.11
2022-09-03T11:15:28.106Z,21.12
2022-09-03T11:16:22.105Z,21.15
2022-09-03T11:17:22.059Z,21.21
2022-09-03T11:18:22.090Z,21.21
2022-09-03T11:19:22.017Z,21.27
2022-09-03T11:20:22.011Z,21.29
2022-09-03T11:21:22.059Z,21.32
2022-09-03T11:22:21.992Z,21.35
2022-09-03T11:23:21.980Z,21.37
2022-09-03T11:24:21.978Z,21.40
2022-09-03T11:25:21.967Z,21.42
2022-09-03T11:26:21.946Z,21.43
2022-09-03T11:27:21.968Z,21.46
2022-09-03T11:28:21.940Z,21.50
2022-09-03T11:29:21.921Z,21.52
2022-09-03T11:30:21.901Z,21.57
2022-09-03T11:31:21.992Z,21.60
2022-09-03T11:32:21.892Z,21.67
2022-09-03T11:33:21.921Z,21.70
2022-09-03T11:34:23.580Z,21.76
2022-09-03T11:35:21.864Z,21.83
2022-09-03T11:36:21.845Z,21.89
2022-09-03T11:37:21.840Z,21.95
2022-09-03T11:38:21.827Z,21.95
2022-09-03T11:39:21.942Z,21.96
2022-09-03T11:40:21.799Z,22.00
2022-09-03T11:41:21.784Z,22.07
2022-09-03T11:42:21.779Z,22.11
2022-09-03T11:43:21.775Z,22.18
2022-09-03T11:44:21.764Z,22.22
2022-09-03T11:45:21.768Z,22.26
2022-09-03T11:46:22.075Z,22.33
2022-09-03T11:47:21.735Z,22.38
2022-09-03T11:48:21.708Z,22.47
2022-09-03T11:49:21.712Z,22.53
2022-09-03T11:50:21.786Z,22.62
2022-09-03T11:51:21.704Z,22.69
2022-09-03T11:52:21.672Z,22.76
2022-09-03T11:53:21.652Z,22.87
2022-09-03T11:54:21.646Z,22.94
2022-09-03T11:55:21.644Z,23.02
2022-09-03T11:56:21.651Z,23.12
2022-09-03T11:57:21.612Z,23.17
2022-09-03T11:58:21.621Z,23.28
2022-09-03T11:59:21.597Z,23.36
2022-09-03T12:00:21.589Z,23.44
2022-09-03T12:01:21.579Z,23.50
2022-09-03T12:02:21.618Z,23.56
2022-09-03T12:03:21.551Z,23.63
2022-09-03T12:04:21.575Z,23.68
2022-09-03T12:05:21.527Z,23.74
2022-09-03T12:06:21.523Z,23.80
2022-09-03T12:07:21.537Z,23.92
2022-09-03T12:08:21.530Z,23.98
2022-09-03T12:09:21.492Z,24.06
2022-09-03T12:10:21.485Z,24.14
2022-09-03T12:11:21.467Z,24.24
2022-09-03T12:12:21.454Z,24.28
2022-09-03T12:13:21.461Z,24.36
2022-09-03T12:14:21.467Z,24.43
2022-09-03T12:15:21.423Z,24.53
2022-09-03T12:16:21.478Z,24.55
2022-09-03T12:17:21.414Z,24.60
2022-09-03T12:18:21.428Z,24.66
2022-09-03T12:19:21.384Z,24.68
2022-09-03T12:20:21.374Z,24.74
2022-09-03T12:21:21.359Z,24.77
2022-09-03T12:22:21.359Z,24.84
2022-09-03T12:23:21.344Z,24.85
2022-09-03T12:24:21.349Z,24.84
2022-09-03T12:25:21.322Z,24.86
2022-09-03T12:26:21.323Z,24.89
2022-09-03T12:27:21.297Z,24.91
2022-09-03T12:28:21.304Z,24.93
2022-09-03T12:29:21.285Z,24.98
2022-09-03T12:30:21.269Z,24.99
2022-09-03T12:31:21.352Z,25.01
2022-09-03T12:32:21.246Z,25.06
2022-09-03T12:33:21.232Z,25.13
2022-09-03T12:34:21.244Z,25.17
2022-09-03T12:36:21.214Z,25.23
2022-09-03T12:38:04.137Z,25.25
2022-09-03T12:38:21.189Z,25.23
2022-09-03T12:40:05.136Z,25.21
2022-09-03T12:40:21.240Z,25.21
2022-09-03T12:41:26.564Z,25.17
2022-09-03T12:42:21.152Z,25.21
2022-09-03T12:44:21.147Z,25.23
2022-09-03T12:45:21.102Z,25.23
2022-09-03T12:46:21.145Z,25.25
2022-09-03T12:47:37.803Z,25.28
2022-09-03T12:48:21.082Z,25.29
2022-09-03T12:49:36.479Z,25.29
2022-09-03T12:50:21.079Z,25.31
2022-09-03T12:52:21.049Z,25.25
2022-09-03T12:53:21.033Z,25.25
2022-09-03T12:54:21.049Z,25.23
2022-09-03T12:55:21.018Z,25.25
2022-09-03T12:56:20.990Z,25.26
2022-09-03T12:57:20.978Z,25.28
2022-09-03T12:58:20.982Z,25.28
2022-09-03T12:59:20.961Z,25.26
2022-09-03T13:00:20.953Z,25.26
2022-09-03T13:01:21.036Z,25.28
2022-09-03T13:02:21.093Z,25.29
2022-09-03T13:03:20.975Z,25.28
2022-09-03T13:04:20.914Z,25.31
2022-09-03T13:05:20.920Z,25.31
2022-09-03T13:06:20.890Z,25.31
2022-09-03T13:07:20.874Z,25.32
2022-09-03T13:08:20.868Z,25.35
2022-09-03T13:09:20.852Z,25.38
2022-09-03T13:10:20.849Z,25.38
2022-09-03T13:11:20.859Z,25.40
2022-09-03T13:12:20.822Z,25.43
2022-09-03T13:13:20.812Z,25.41
2022-09-03T13:14:20.813Z,25.41
2022-09-03T13:15:20.787Z,25.41
2022-09-03T13:16:20.879Z,25.40
2022-09-03T13:17:20.811Z,25.33
2022-09-03T13:18:20.762Z,25.35
2022-09-03T13:19:20.750Z,25.36
2022-09-03T13:20:20.748Z,25.36
2022-09-03T13:21:20.741Z,25.33
2022-09-03T13:22:20.723Z,25.32
2022-09-03T13:23:20.715Z,25.29
2022-09-03T13:24:20.698Z,25.23
2022-09-03T13:25:20.699Z,25.17
2022-09-03T13:26:20.789Z,25.17
2022-09-03T13:27:20.676Z,25.13
2022-09-03T13:28:20.660Z,25.10
2022-09-03T13:29:20.644Z,25.08
2022-09-03T13:30:20.640Z,25.10
2022-09-03T13:31:20.698Z,25.08
2022-09-03T13:32:20.648Z,25.07
2022-09-03T13:33:20.598Z,25.07
2022-09-03T13:34:20.595Z,25.10
2022-09-03T13:35:20.603Z,25.06
2022-09-03T13:36:20.580Z,25.10
2022-09-03T13:37:20.558Z,25.14
2022-09-03T13:38:20.556Z,25.11
2022-09-03T13:39:20.575Z,25.11
2022-09-03T13:40:20.554Z,25.13
2022-09-03T13:41:20.538Z,25.11
2022-09-03T13:42:20.506Z,25.11
2022-09-03T13:43:20.560Z,25.11
2022-09-03T13:44:20.491Z,25.13
2022-09-03T13:45:20.487Z,25.14
2022-09-03T13:46:20.531Z,25.18
2022-09-03T13:47:20.476Z,25.21
2022-09-03T13:48:20.444Z,25.23
2022-09-03T13:49:20.432Z,25.28
2022-09-03T13:50:20.427Z,25.31
2022-09-03T13:51:20.418Z,25.31
2022-09-03T13:52:20.427Z,25.33
2022-09-03T13:53:20.429Z,25.36
2022-09-03T13:54:42.546Z,25.41
2022-09-03T13:55:20.387Z,25.44
2022-09-03T13:56:20.356Z,25.47
2022-09-03T13:57:20.348Z,25.51
2022-09-03T13:58:20.381Z,25.53
2022-09-03T13:59:20.387Z,25.55
2022-09-03T14:00:20.329Z,25.60
2022-09-03T14:01:20.536Z,25.63
2022-09-03T14:02:20.350Z,25.63
2022-09-03T14:03:20.334Z,25.66
2022-09-03T14:04:20.290Z,25.70
2022-09-03T14:05:20.269Z,25.72
2022-09-03T14:06:20.275Z,25.73
2022-09-03T14:07:20.245Z,25.77
2022-09-03T14:08:20.231Z,25.80
2022-09-03T14:09:20.226Z,25.83
2022-09-03T14:10:20.211Z,25.85
2022-09-03T14:11:20.202Z,25.87
2022-09-03T14:12:20.227Z,25.87
2022-09-03T14:13:20.186Z,25.91
2022-09-03T14:14:20.167Z,25.96
2022-09-03T14:15:20.164Z,26.02
2022-09-03T14:16:20.186Z,26.06
2022-09-03T14:17:20.138Z,26.09
2022-09-03T14:18:20.128Z,26.10
2022-09-03T14:19:20.117Z,26.13
2022-09-03T14:20:20.106Z,26.15
2022-09-03T14:21:20.101Z,26.15
2022-09-03T14:22:20.111Z,26.16
2022-09-03T14:23:20.131Z,26.18
2022-09-03T14:24:20.063Z,26.22
2022-09-03T14:25:20.058Z,26.23
2022-09-03T14:26:30.957Z,26.26
2022-09-03T14:27:20.054Z,26.25
2022-09-03T14:28:20.032Z,26.25
2022-09-03T14:29:20.010Z,26.25
2022-09-03T14:30:20.009Z,26.28
2022-09-03T14:31:20.055Z,26.29
2022-09-03T14:32:19.985Z,26.31
2022-09-03T14:33:20.121Z,26.36
2022-09-03T14:34:19.962Z,26.28
2022-09-03T14:35:19.961Z,26.25
2022-09-03T14:36:19.945Z,26.19
2022-09-03T14:37:19.932Z,26.15
2022-09-03T14:38:25.187Z,26.09
2022-09-03T14:39:19.972Z,26.03
2022-09-03T14:40:19.899Z,25.98
2022-09-03T14:41:19.899Z,25.95
2022-09-03T14:42:19.870Z,25.91
2022-09-03T14:43:19.955Z,25.87
2022-09-03T14:44:19.864Z,25.84
2022-09-03T14:45:19.847Z,25.78
2022-09-03T14:46:19.934Z,25.75
2022-09-03T14:47:19.824Z,25.73
2022-09-03T14:48:19.827Z,25.70
2022-09-03T14:49:19.809Z,25.69
2022-09-03T14:50:19.790Z,25.66
2022-09-03T14:51:20.100Z,25.63
2022-09-03T14:52:19.781Z,25.59
2022-09-03T14:53:19.799Z,25.58
2022-09-03T14:54:19.764Z,25.54
2022-09-03T14:55:19.778Z,25.51
2022-09-03T14:56:19.729Z,25.48
2022-09-03T14:57:19.718Z,25.48
2022-09-03T14:58:19.703Z,25.48
2022-09-03T14:59:20.016Z,25.50
2022-09-03T15:00:20.104Z,25.55
2022-09-03T15:01:19.749Z,25.66
2022-09-03T15:02:19.713Z,25.75
2022-09-03T15:03:19.678Z,25.81
2022-09-03T15:04:19.645Z,25.88
2022-09-03T15:05:19.636Z,25.99
2022-09-03T15:06:19.623Z,26.13
2022-09-03T15:07:19.654Z,26.26
2022-09-03T15:08:19.603Z,26.40
2022-09-03T15:09:19.600Z,26.53
2022-09-03T15:10:19.585Z,26.62
2022-09-03T15:11:19.600Z,26.63
2022-09-03T15:12:19.568Z,26.68
2022-09-03T15:13:19.578Z,26.85
2022-09-03T15:14:19.539Z,27.03
2022-09-03T15:15:19.531Z,27.15
2022-09-03T15:16:19.600Z,27.29
2022-09-03T15:17:19.551Z,27.33
2022-09-03T15:18:19.499Z,27.42
2022-09-03T15:19:19.491Z,27.60
2022-09-03T15:20:19.488Z,27.71
2022-09-03T15:21:19.472Z,27.80
2022-09-03T15:22:19.456Z,27.71
2022-09-03T15:23:19.481Z,27.85
2022-09-03T15:24:19.438Z,28.10
2022-09-03T15:25:19.429Z,28.22
2022-09-03T15:26:19.416Z,28.37
2022-09-03T15:27:19.409Z,28.44
2022-09-03T15:28:19.389Z,28.63
2022-09-03T15:29:19.404Z,28.84
2022-09-03T15:30:19.364Z,29.01
2022-09-03T15:31:19.387Z,29.16
2022-09-03T15:32:19.349Z,29.29
2022-09-03T15:33:19.345Z,29.41
2022-09-03T15:34:19.341Z,29.51
2022-09-03T15:35:19.354Z,29.56
2022-09-03T15:36:19.308Z,29.63
2022-09-03T15:37:19.302Z,29.75
2022-09-03T15:38:19.294Z,29.87
2022-09-03T15:39:19.309Z,29.95
2022-09-03T15:40:19.265Z,30.05
2022-09-03T15:41:19.290Z,30.16
2022-09-03T15:42:19.242Z,30.31
2022-09-03T15:43:19.239Z,30.44
2022-09-03T15:44:19.912Z,30.53
2022-09-03T15:45:19.293Z,30.65
2022-09-03T15:46:19.229Z,30.70
2022-09-03T15:47:19.199Z,30.78
2022-09-03T15:48:19.182Z,30.80
2022-09-03T15:49:19.189Z,30.84
2022-09-03T15:50:19.166Z,30.87
2022-09-03T15:51:19.162Z,30.92
2022-09-03T15:52:19.154Z,30.97
2022-09-03T15:53:19.198Z,31.03
2022-09-03T15:54:19.124Z,31.12
2022-09-03T15:55:19.110Z,31.24
2022-09-03T15:56:19.101Z,30.81
2022-09-03T15:57:19.103Z,30.31
2022-09-03T15:58:19.088Z,29.91
2022-09-03T15:59:19.121Z,29.63
2022-09-03T16:00:21.389Z,29.54
2022-09-03T16:01:19.079Z,29.26
2022-09-03T16:02:19.041Z,28.97
2022-09-03T16:03:23.694Z,28.70
2022-09-03T16:04:19.031Z,28.44
2022-09-03T16:05:19.035Z,28.22
2022-09-03T16:06:19.005Z,27.93
2022-09-03T16:07:18.994Z,27.73
2022-09-03T16:08:18.975Z,27.52
2022-09-03T16:09:18.980Z,27.37
2022-09-03T16:10:26.481Z,27.20
2022-09-03T16:11:18.958Z,27.07
2022-09-03T16:12:18.948Z,26.97
2022-09-03T16:13:18.987Z,26.85
2022-09-03T16:14:18.913Z,26.75
2022-09-03T16:15:18.914Z,26.66
2022-09-03T16:16:18.984Z,26.59
2022-09-03T16:17:18.903Z,26.53
2022-09-03T16:18:18.874Z,26.48
2022-09-03T16:19:18.868Z,26.44
2022-09-03T16:20:18.867Z,26.40
2022-09-03T16:21:18.846Z,26.36
2022-09-03T16:22:18.854Z,26.31
2022-09-03T16:23:18.838Z,26.29
2022-09-03T16:24:18.817Z,26.29
2022-09-03T16:25:18.804Z,26.26
2022-09-03T16:26:18.782Z,26.22
2022-09-03T16:27:18.778Z,26.21
2022-09-03T16:28:18.799Z,26.18
2022-09-03T16:29:18.762Z,26.15
2022-09-03T16:30:18.748Z,26.09
2022-09-03T16:31:18.807Z,26.07
2022-09-03T16:32:18.729Z,26.05
2022-09-03T16:33:18.719Z,26.02
2022-09-03T16:34:19.123Z,26.00
2022-09-03T16:35:18.698Z,25.96
2022-09-03T16:36:18.680Z,25.93
2022-09-03T16:37:18.680Z,25.90
2022-09-03T16:38:18.662Z,25.87
2022-09-03T16:39:18.729Z,25.84
2022-09-03T16:40:21.073Z,25.80
2022-09-03T16:41:18.654Z,25.75
2022-09-03T16:42:18.625Z,25.70
2022-09-03T16:43:39.600Z,25.68
2022-09-03T16:44:18.618Z,25.62
2022-09-03T16:45:18.594Z,25.55
2022-09-03T16:46:18.617Z,25.51
2022-09-03T16:47:18.581Z,25.48
2022-09-03T16:48:18.558Z,25.46
2022-09-03T16:49:18.569Z,25.46
2022-09-03T16:50:18.559Z,25.40
2022-09-03T16:51:18.531Z,25.32